If you wish to contribute or participate in the discussions about articles you are invited to join SKYbrary as a registered user

 Actions

Okayama Airport

From SKYbrary Wiki

RJOB
Airport
ICAO: RJOB – IATA: OKJ
Summary
Name Okayama Airport
Region Asia and Pacific
Territory Japan JP.gif
Location Okayama, Okayama Prefecture
Serving Okayama
Elevation 239.268 m
785 ft239.268 m
Coordinates 34° 45' 36.10" N, 133° 51' 11.37" E
Runways
Designator Length Width Surface ROPS
7/25 3000 m9,842.52 ft
46 m150.919 ft
ASP yes/yes


METAR
Observation RJOB 180200Z VRB03KT CAVOK 19/09 Q1013
Station Okayama Airport
Date/Time 18 April 2019 02:00:00
Wind direction °
Wind speed 03 kts
Lowest cloud amount clouds and visibility OK
Temperature 19°C
Dew point 9°C
Humidity 52%
QNH 1013 hPa
Weather condition n/a

Okayama Airport is an airport in Okayama Prefecture, Japan.

Climatology

Humid Sub-tropical climate (Köppen climate classification Cfa)

Maps

Terrain

Loading map...

Airport Layout

Loading map...


Accidents & Serious Incidents at or in vicinity of RJOB

None on SKYbrary